SWA3484 KMIA-KBWI
Flight info
| Callsign | SWA3484 |
|---|---|
| Flight time | 2h 4m |
| Altitude | 36000 |
| Route | FOLZZ3 ALYRA GRUBR Y299 SEELO GARIC ZORDO Q111 RUKRR THHMP RAVNN8 |
| Aircraft | B737/M-SADE2E3GIJ4RWZ/LB1D1 |
Departure
| Time | 2026-05-08 02:50 |
|---|---|
| Airport | Miami International Airport (KMIA) |
Arrival
| Time | 2026-05-08 04:54 |
|---|---|
| Airport | Baltimore/Washington International Thurgood Marshall Airport (KBWI) |
| Time | Latitude | Longitude | Altitude | Speed | Heading |
|---|---|---|---|---|---|
| 2026-05-08 02:27 | 25.79110 | -80.27971 | 14 ft | 0 kts | 108° |
| 2026-05-08 02:38 | 25.79115 | -80.27985 | 17 ft | 4 kts | 109° |
| 2026-05-08 02:39 | 25.79122 | -80.28008 | 17 ft | 3 kts | 110° |
| 2026-05-08 02:39 | 25.79134 | -80.28031 | 16 ft | 4 kts | 155° |
| 2026-05-08 02:39 | 25.79155 | -80.28030 | 14 ft | 4 kts | 206° |
| 2026-05-08 02:39 | 25.79169 | -80.28022 | 14 ft | 0 kts | 206° |
| 2026-05-08 02:42 | 25.79169 | -80.28023 | 14 ft | 1 kts | 206° |
| 2026-05-08 02:42 | 25.79157 | -80.28030 | 17 ft | 3 kts | 207° |
| 2026-05-08 02:42 | 25.79127 | -80.28046 | 14 ft | 6 kts | 206° |
| 2026-05-08 02:43 | 25.79082 | -80.28074 | 14 ft | 9 kts | 218° |
| 2026-05-08 02:43 | 25.79052 | -80.28138 | 14 ft | 11 kts | 266° |
| 2026-05-08 02:43 | 25.79084 | -80.28218 | 14 ft | 13 kts | 301° |
| 2026-05-08 02:43 | 25.79135 | -80.28307 | 14 ft | 15 kts | 298° |
| 2026-05-08 02:44 | 25.79200 | -80.28403 | 14 ft | 16 kts | 324° |
| 2026-05-08 02:44 | 25.79268 | -80.28507 | 14 ft | 18 kts | 298° |
| 2026-05-08 02:44 | 25.79330 | -80.28630 | 14 ft | 19 kts | 300° |
| 2026-05-08 02:44 | 25.79397 | -80.28763 | 14 ft | 20 kts | 299° |
| 2026-05-08 02:45 | 25.79465 | -80.28902 | 14 ft | 20 kts | 297° |
| 2026-05-08 02:45 | 25.79537 | -80.29035 | 14 ft | 20 kts | 300° |
| 2026-05-08 02:45 | 25.79603 | -80.29167 | 14 ft | 19 kts | 298° |
| 2026-05-08 02:45 | 25.79667 | -80.29295 | 14 ft | 19 kts | 301° |
| 2026-05-08 02:46 | 25.79732 | -80.29416 | 14 ft | 18 kts | 300° |
| 2026-05-08 02:46 | 25.79792 | -80.29535 | 14 ft | 17 kts | 300° |
| 2026-05-08 02:46 | 25.79850 | -80.29649 | 14 ft | 17 kts | 299° |
| 2026-05-08 02:46 | 25.79904 | -80.29761 | 13 ft | 16 kts | 295° |
| 2026-05-08 02:47 | 25.79949 | -80.29870 | 13 ft | 15 kts | 295° |
| 2026-05-08 02:47 | 25.79975 | -80.29960 | 12 ft | 0 kts | 285° |
| 2026-05-08 02:48 | 25.79977 | -80.29969 | 12 ft | 3 kts | 285° |
| 2026-05-08 02:48 | 25.79988 | -80.30014 | 12 ft | 9 kts | 285° |
| 2026-05-08 02:48 | 25.80010 | -80.30097 | 15 ft | 13 kts | 292° |
| 2026-05-08 02:48 | 25.80075 | -80.30094 | 13 ft | 15 kts | 83° |
| 2026-05-08 02:49 | 25.80080 | -80.29950 | 13 ft | 34 kts | 86° |
| 2026-05-08 02:49 | 25.80102 | -80.29414 | 14 ft | 103 kts | 88° |
| 2026-05-08 02:49 | 25.80140 | -80.28409 | 19 ft | 156 kts | 86° |
| 2026-05-08 02:49 | 25.80202 | -80.27131 | 451 ft | 170 kts | 86° |
| 2026-05-08 02:50 | 25.80302 | -80.25767 | 949 ft | 185 kts | 85° |
| 2026-05-08 02:50 | 25.80346 | -80.24278 | 1387 ft | 206 kts | 104° |
| 2026-05-08 02:50 | 25.79597 | -80.22852 | 1658 ft | 228 kts | 129° |
| 2026-05-08 02:50 | 25.78639 | -80.21347 | 1975 ft | 252 kts | 123° |
| 2026-05-08 02:51 | 25.77684 | -80.19617 | 2490 ft | 268 kts | 120° |
| 2026-05-08 02:51 | 25.76750 | -80.17820 | 3326 ft | 270 kts | 119° |
| 2026-05-08 02:51 | 25.75827 | -80.16003 | 4178 ft | 271 kts | 118° |
| 2026-05-08 02:51 | 25.74904 | -80.14154 | 4971 ft | 277 kts | 117° |
| 2026-05-08 02:52 | 25.74258 | -80.12153 | 5800 ft | 276 kts | 94° |
| 2026-05-08 02:52 | 25.74530 | -80.10064 | 6665 ft | 278 kts | 68° |
| 2026-05-08 02:52 | 25.75161 | -80.08819 | 7177 ft | 282 kts | 53° |
| 2026-05-08 02:52 | 25.76408 | -80.07126 | 7973 ft | 286 kts | 49° |
| 2026-05-08 02:53 | 25.77738 | -80.05466 | 8811 ft | 290 kts | 48° |
| 2026-05-08 02:53 | 25.79098 | -80.03794 | 9707 ft | 293 kts | 48° |
| 2026-05-08 02:53 | 25.80474 | -80.02095 | 10453 ft | 302 kts | 48° |
| 2026-05-08 02:53 | 25.81936 | -80.00278 | 10683 ft | 329 kts | 48° |
| 2026-05-08 02:54 | 25.83511 | -79.98306 | 10922 ft | 352 kts | 48° |
| 2026-05-08 02:54 | 25.85156 | -79.96233 | 11474 ft | 362 kts | 48° |
| 2026-05-08 02:54 | 25.86832 | -79.94113 | 12218 ft | 367 kts | 48° |
| 2026-05-08 02:54 | 25.88524 | -79.91966 | 12965 ft | 372 kts | 48° |
| 2026-05-08 02:55 | 25.90233 | -79.89791 | 13670 ft | 378 kts | 47° |
| 2026-05-08 02:55 | 25.93725 | -79.85343 | 15071 ft | 385 kts | 47° |
| 2026-05-08 02:55 | 25.95495 | -79.83088 | 15766 ft | 389 kts | 47° |
| 2026-05-08 02:56 | 25.97280 | -79.80813 | 16468 ft | 392 kts | 46° |
| 2026-05-08 02:56 | 25.99080 | -79.78517 | 17160 ft | 396 kts | 46° |
| 2026-05-08 02:56 | 26.00895 | -79.76200 | 17852 ft | 400 kts | 46° |
| 2026-05-08 02:56 | 26.02729 | -79.73856 | 18485 ft | 404 kts | 46° |
| 2026-05-08 02:57 | 26.04583 | -79.71485 | 19023 ft | 409 kts | 46° |
| 2026-05-08 02:57 | 26.06459 | -79.69083 | 19546 ft | 414 kts | 46° |
| 2026-05-08 02:57 | 26.08358 | -79.66653 | 20071 ft | 418 kts | 45° |
| 2026-05-08 02:57 | 26.10282 | -79.64193 | 20594 ft | 423 kts | 45° |
| 2026-05-08 02:58 | 26.12138 | -79.61633 | 21099 ft | 429 kts | 50° |
| 2026-05-08 02:58 | 26.13881 | -79.58914 | 21603 ft | 435 kts | 52° |
| 2026-05-08 02:58 | 26.15598 | -79.56118 | 22091 ft | 439 kts | 52° |
| 2026-05-08 02:58 | 26.17327 | -79.53294 | 22554 ft | 444 kts | 52° |
| 2026-05-08 02:59 | 26.19088 | -79.50453 | 23023 ft | 449 kts | 51° |
| 2026-05-08 02:59 | 26.20887 | -79.47588 | 23428 ft | 454 kts | 51° |
| 2026-05-08 02:59 | 26.22708 | -79.44705 | 23838 ft | 457 kts | 51° |
| 2026-05-08 02:59 | 26.24550 | -79.41796 | 24262 ft | 459 kts | 51° |
| 2026-05-08 03:00 | 26.26392 | -79.38887 | 24738 ft | 460 kts | 51° |
| 2026-05-08 03:00 | 26.28256 | -79.35989 | 25133 ft | 461 kts | 47° |
| 2026-05-08 03:00 | 26.30550 | -79.33544 | 25469 ft | 454 kts | 29° |
| 2026-05-08 03:00 | 26.33216 | -79.31655 | 25888 ft | 454 kts | 27° |
| 2026-05-08 03:01 | 26.35915 | -79.29797 | 26267 ft | 457 kts | 27° |
| 2026-05-08 03:01 | 26.38628 | -79.27930 | 26626 ft | 460 kts | 27° |
| 2026-05-08 03:01 | 26.41352 | -79.26038 | 26989 ft | 463 kts | 27° |
| 2026-05-08 03:01 | 26.44086 | -79.24118 | 27359 ft | 465 kts | 27° |
| 2026-05-08 03:02 | 26.46821 | -79.22181 | 27735 ft | 468 kts | 27° |
| 2026-05-08 03:02 | 26.49575 | -79.20221 | 28023 ft | 472 kts | 28° |
| 2026-05-08 03:02 | 26.52352 | -79.18237 | 28347 ft | 475 kts | 28° |
| 2026-05-08 03:02 | 26.55147 | -79.16237 | 28697 ft | 477 kts | 28° |
| 2026-05-08 03:03 | 26.57941 | -79.14237 | 29024 ft | 479 kts | 28° |
| 2026-05-08 03:03 | 26.60753 | -79.12223 | 29344 ft | 482 kts | 28° |
| 2026-05-08 03:03 | 26.63588 | -79.10192 | 29641 ft | 485 kts | 28° |
| 2026-05-08 03:03 | 26.66428 | -79.08157 | 29939 ft | 487 kts | 28° |
| 2026-05-08 03:04 | 26.69289 | -79.06106 | 30214 ft | 489 kts | 28° |
| 2026-05-08 03:04 | 26.72158 | -79.04048 | 30496 ft | 490 kts | 28° |
| 2026-05-08 03:04 | 26.75022 | -79.01992 | 30878 ft | 489 kts | 28° |
| 2026-05-08 03:04 | 26.77876 | -78.99940 | 31274 ft | 487 kts | 28° |
| 2026-05-08 03:05 | 26.80726 | -78.97891 | 31676 ft | 486 kts | 28° |
| 2026-05-08 03:05 | 26.83562 | -78.95851 | 32082 ft | 484 kts | 28° |
| 2026-05-08 03:05 | 26.86395 | -78.93812 | 32485 ft | 483 kts | 28° |
| 2026-05-08 03:05 | 26.89223 | -78.91776 | 32913 ft | 482 kts | 27° |
| 2026-05-08 03:06 | 26.92039 | -78.89748 | 33348 ft | 481 kts | 27° |
| 2026-05-08 03:06 | 26.94844 | -78.87726 | 33786 ft | 479 kts | 27° |
| 2026-05-08 03:06 | 26.97642 | -78.85708 | 34192 ft | 478 kts | 27° |
| 2026-05-08 03:06 | 27.00432 | -78.83694 | 34551 ft | 476 kts | 27° |
| 2026-05-08 03:07 | 27.03218 | -78.81682 | 34902 ft | 476 kts | 27° |
| 2026-05-08 03:07 | 27.06004 | -78.79670 | 35150 ft | 477 kts | 27° |
| 2026-05-08 03:07 | 27.08800 | -78.77649 | 35382 ft | 479 kts | 27° |
| 2026-05-08 03:07 | 27.11603 | -78.75622 | 35604 ft | 480 kts | 27° |
| 2026-05-08 03:08 | 27.14410 | -78.73589 | 35858 ft | 481 kts | 27° |
| 2026-05-08 03:08 | 27.17222 | -78.71551 | 36065 ft | 482 kts | 28° |
| 2026-05-08 03:08 | 27.20055 | -78.69496 | 36039 ft | 485 kts | 28° |
| 2026-05-08 03:09 | 27.25700 | -78.65398 | 36037 ft | 480 kts | 28° |
| 2026-05-08 03:09 | 27.28584 | -78.63596 | 36029 ft | 468 kts | 15° |
| 2026-05-08 03:09 | 27.31691 | -78.62736 | 36072 ft | 457 kts | 2° |
| 2026-05-08 03:10 | 27.38016 | -78.61948 | 36052 ft | 458 kts | 0° |
| 2026-05-08 03:10 | 27.44376 | -78.61237 | 36046 ft | 460 kts | 0° |
| 2026-05-08 03:11 | 27.50714 | -78.60455 | 36049 ft | 462 kts | 1° |
| 2026-05-08 03:11 | 27.57107 | -78.59628 | 36045 ft | 463 kts | 1° |
| 2026-05-08 03:12 | 27.63500 | -78.58794 | 36054 ft | 463 kts | 1° |
| 2026-05-08 03:12 | 27.69898 | -78.57961 | 36043 ft | 463 kts | 1° |
| 2026-05-08 03:13 | 27.76289 | -78.57128 | 36039 ft | 462 kts | 1° |
| 2026-05-08 03:13 | 27.82667 | -78.56296 | 36039 ft | 461 kts | 1° |
| 2026-05-08 03:14 | 27.89039 | -78.55464 | 36037 ft | 460 kts | 1° |
| 2026-05-08 03:14 | 27.95397 | -78.54633 | 36038 ft | 460 kts | 0° |
| 2026-05-08 03:15 | 28.01756 | -78.53801 | 36034 ft | 460 kts | 0° |
| 2026-05-08 03:15 | 28.08103 | -78.52969 | 36035 ft | 459 kts | 0° |
| 2026-05-08 03:16 | 28.14448 | -78.52137 | 36035 ft | 459 kts | 0° |
| 2026-05-08 03:16 | 28.20788 | -78.51305 | 36044 ft | 459 kts | 0° |
| 2026-05-08 03:17 | 28.27130 | -78.50471 | 36037 ft | 459 kts | 0° |
| 2026-05-08 03:17 | 28.33467 | -78.49637 | 36035 ft | 459 kts | 0° |
| 2026-05-08 03:18 | 28.39810 | -78.48801 | 36029 ft | 459 kts | 0° |
| 2026-05-08 03:18 | 28.46149 | -78.47964 | 36026 ft | 459 kts | 0° |
| 2026-05-08 03:19 | 28.52498 | -78.47125 | 36031 ft | 459 kts | 359° |
| 2026-05-08 03:19 | 28.58843 | -78.46286 | 36024 ft | 459 kts | 359° |
| 2026-05-08 03:20 | 28.65195 | -78.45445 | 36022 ft | 459 kts | 359° |
| 2026-05-08 03:20 | 28.71502 | -78.44608 | 36020 ft | 459 kts | 359° |
| 2026-05-08 03:21 | 28.77858 | -78.43765 | 36029 ft | 460 kts | 359° |
| 2026-05-08 03:21 | 28.84207 | -78.42921 | 36022 ft | 460 kts | 359° |
| 2026-05-08 03:22 | 28.90564 | -78.42074 | 36020 ft | 460 kts | 359° |
| 2026-05-08 03:22 | 28.96915 | -78.41228 | 36018 ft | 460 kts | 359° |
| 2026-05-08 03:23 | 29.03269 | -78.40380 | 36020 ft | 459 kts | 359° |
| 2026-05-08 03:23 | 29.09631 | -78.39531 | 36025 ft | 460 kts | 359° |
| 2026-05-08 03:24 | 29.15995 | -78.38680 | 36016 ft | 461 kts | 359° |
| 2026-05-08 03:24 | 29.22366 | -78.37826 | 36013 ft | 461 kts | 359° |
| 2026-05-08 03:25 | 29.28737 | -78.36971 | 36013 ft | 461 kts | 359° |
| 2026-05-08 03:25 | 29.35112 | -78.36115 | 36023 ft | 461 kts | 358° |
| 2026-05-08 03:26 | 29.41486 | -78.35258 | 36014 ft | 462 kts | 358° |
| 2026-05-08 03:26 | 29.47865 | -78.34462 | 35998 ft | 456 kts | 352° |
| 2026-05-08 03:26 | 29.50926 | -78.34887 | 36020 ft | 436 kts | 337° |
| 2026-05-08 03:27 | 29.53841 | -78.35829 | 36007 ft | 435 kts | 336° |
| 2026-05-08 03:27 | 29.59645 | -78.37806 | 36005 ft | 435 kts | 336° |
| 2026-05-08 03:28 | 29.65459 | -78.39752 | 36015 ft | 436 kts | 336° |
| 2026-05-08 03:28 | 29.71291 | -78.41660 | 35997 ft | 436 kts | 336° |
| 2026-05-08 03:29 | 29.77125 | -78.43557 | 36002 ft | 435 kts | 336° |
| 2026-05-08 03:29 | 29.82911 | -78.45439 | 36002 ft | 435 kts | 336° |
| 2026-05-08 03:30 | 29.91634 | -78.48285 | 36011 ft | 434 kts | 335° |
| 2026-05-08 03:31 | 30.03248 | -78.52081 | 36000 ft | 433 kts | 335° |
| 2026-05-08 03:32 | 30.11953 | -78.54908 | 35998 ft | 436 kts | 339° |
| 2026-05-08 03:32 | 30.18109 | -78.55528 | 35993 ft | 456 kts | 355° |
| 2026-05-08 03:33 | 30.24464 | -78.54629 | 35994 ft | 461 kts | 359° |
| 2026-05-08 03:33 | 30.30823 | -78.53623 | 35996 ft | 461 kts | 358° |
| 2026-05-08 03:34 | 30.37177 | -78.52692 | 35995 ft | 460 kts | 358° |
| 2026-05-08 03:34 | 30.43528 | -78.51774 | 35993 ft | 461 kts | 358° |
| 2026-05-08 03:35 | 30.49892 | -78.50761 | 35999 ft | 462 kts | 359° |
| 2026-05-08 03:35 | 30.56267 | -78.49712 | 35991 ft | 463 kts | 359° |
| 2026-05-08 03:36 | 30.61651 | -78.48829 | 35989 ft | 463 kts | 359° |
| 2026-05-08 03:36 | 30.68029 | -78.47791 | 35990 ft | 463 kts | 359° |
| 2026-05-08 03:37 | 30.74411 | -78.46756 | 36014 ft | 463 kts | 358° |
| 2026-05-08 03:37 | 30.80808 | -78.45718 | 36003 ft | 464 kts | 358° |
| 2026-05-08 03:38 | 30.87211 | -78.44676 | 35996 ft | 465 kts | 358° |
| 2026-05-08 03:38 | 30.93626 | -78.43631 | 35992 ft | 466 kts | 359° |
| 2026-05-08 03:39 | 31.00042 | -78.42584 | 36011 ft | 466 kts | 359° |
| 2026-05-08 03:39 | 31.06471 | -78.41533 | 35997 ft | 467 kts | 358° |
| 2026-05-08 03:40 | 31.12912 | -78.40480 | 35990 ft | 467 kts | 358° |
| 2026-05-08 03:40 | 31.19353 | -78.39424 | 35989 ft | 468 kts | 358° |
| 2026-05-08 03:41 | 31.25753 | -78.38374 | 35986 ft | 468 kts | 358° |
| 2026-05-08 03:41 | 31.32210 | -78.37313 | 35993 ft | 469 kts | 358° |
| 2026-05-08 03:42 | 31.38671 | -78.36250 | 35987 ft | 469 kts | 358° |
| 2026-05-08 03:42 | 31.45141 | -78.35184 | 35986 ft | 470 kts | 358° |
| 2026-05-08 03:43 | 31.51611 | -78.34117 | 35984 ft | 470 kts | 358° |
| 2026-05-08 03:43 | 31.58089 | -78.33047 | 35978 ft | 471 kts | 357° |
| 2026-05-08 03:44 | 31.64577 | -78.31974 | 35974 ft | 471 kts | 357° |
| 2026-05-08 03:44 | 31.71078 | -78.30897 | 35972 ft | 472 kts | 357° |
| 2026-05-08 03:45 | 31.77579 | -78.29817 | 35969 ft | 472 kts | 357° |
| 2026-05-08 03:45 | 31.84085 | -78.28736 | 35974 ft | 473 kts | 356° |
| 2026-05-08 03:46 | 31.90600 | -78.27652 | 35967 ft | 473 kts | 357° |
| 2026-05-08 03:46 | 31.97081 | -78.26572 | 35961 ft | 473 kts | 357° |
| 2026-05-08 03:47 | 32.03596 | -78.25490 | 35969 ft | 473 kts | 356° |
| 2026-05-08 03:47 | 32.10113 | -78.24520 | 35989 ft | 471 kts | 354° |
| 2026-05-08 03:48 | 32.16627 | -78.23597 | 35964 ft | 471 kts | 354° |
| 2026-05-08 03:48 | 32.23122 | -78.22665 | 35949 ft | 470 kts | 354° |
| 2026-05-08 03:49 | 32.29607 | -78.21721 | 35948 ft | 469 kts | 354° |
| 2026-05-08 03:49 | 32.36078 | -78.20773 | 35978 ft | 468 kts | 354° |
| 2026-05-08 03:50 | 32.42536 | -78.19826 | 35958 ft | 467 kts | 354° |
| 2026-05-08 03:50 | 32.48970 | -78.18881 | 35941 ft | 465 kts | 354° |
| 2026-05-08 03:51 | 32.55377 | -78.17939 | 35945 ft | 464 kts | 354° |
| 2026-05-08 03:51 | 32.61769 | -78.16999 | 35967 ft | 462 kts | 353° |
| 2026-05-08 03:52 | 32.68160 | -78.16059 | 35946 ft | 462 kts | 353° |
| 2026-05-08 03:52 | 32.74531 | -78.15118 | 35933 ft | 461 kts | 353° |
| 2026-05-08 03:53 | 32.80890 | -78.14178 | 35937 ft | 460 kts | 353° |
| 2026-05-08 03:53 | 32.87244 | -78.13238 | 35933 ft | 460 kts | 353° |
| 2026-05-08 03:54 | 32.93591 | -78.12298 | 35929 ft | 459 kts | 353° |
| 2026-05-08 03:54 | 32.99935 | -78.11357 | 35934 ft | 459 kts | 353° |
| 2026-05-08 03:55 | 33.06282 | -78.10414 | 35934 ft | 460 kts | 353° |
| 2026-05-08 03:55 | 33.12629 | -78.09469 | 35973 ft | 460 kts | 353° |
| 2026-05-08 03:56 | 33.19007 | -78.08521 | 35926 ft | 462 kts | 353° |
| 2026-05-08 03:56 | 33.25396 | -78.07566 | 35915 ft | 463 kts | 353° |
| 2026-05-08 03:57 | 33.31754 | -78.06615 | 35918 ft | 464 kts | 353° |
| 2026-05-08 03:57 | 33.38160 | -78.05655 | 35943 ft | 464 kts | 353° |
| 2026-05-08 03:58 | 33.44625 | -78.04686 | 35921 ft | 465 kts | 353° |
| 2026-05-08 03:58 | 33.51048 | -78.03720 | 35913 ft | 465 kts | 353° |
| 2026-05-08 03:59 | 33.57430 | -78.02759 | 35912 ft | 465 kts | 353° |
| 2026-05-08 03:59 | 33.63851 | -78.01791 | 35962 ft | 465 kts | 353° |
| 2026-05-08 04:00 | 33.70271 | -78.00823 | 35920 ft | 465 kts | 353° |
| 2026-05-08 04:00 | 33.76695 | -77.99852 | 35941 ft | 465 kts | 353° |
| 2026-05-08 04:01 | 33.83104 | -77.98881 | 35952 ft | 464 kts | 353° |
| 2026-05-08 04:01 | 33.89484 | -77.97912 | 35992 ft | 463 kts | 353° |
| 2026-05-08 04:02 | 33.95891 | -77.96911 | 35963 ft | 464 kts | 353° |
| 2026-05-08 04:02 | 34.02287 | -77.95901 | 35947 ft | 464 kts | 353° |
| 2026-05-08 04:03 | 34.08680 | -77.94893 | 35943 ft | 463 kts | 353° |
| 2026-05-08 04:03 | 34.18215 | -77.93391 | 35962 ft | 463 kts | 353° |
| 2026-05-08 04:04 | 34.24596 | -77.92385 | 35960 ft | 463 kts | 353° |
| 2026-05-08 04:04 | 34.30982 | -77.91375 | 35962 ft | 463 kts | 353° |
| 2026-05-08 04:05 | 34.37362 | -77.90365 | 35963 ft | 462 kts | 353° |
| 2026-05-08 04:05 | 34.43751 | -77.89353 | 35956 ft | 464 kts | 353° |
| 2026-05-08 04:06 | 34.50146 | -77.88338 | 35962 ft | 464 kts | 353° |
| 2026-05-08 04:06 | 34.56547 | -77.87319 | 35967 ft | 464 kts | 353° |
| 2026-05-08 04:07 | 34.62953 | -77.86298 | 35980 ft | 464 kts | 353° |
| 2026-05-08 04:07 | 34.69367 | -77.85276 | 35988 ft | 466 kts | 353° |
| 2026-05-08 04:08 | 34.75792 | -77.84248 | 35985 ft | 466 kts | 353° |
| 2026-05-08 04:08 | 34.82220 | -77.83219 | 35977 ft | 466 kts | 353° |
| 2026-05-08 04:09 | 34.88650 | -77.82160 | 35977 ft | 468 kts | 354° |
| 2026-05-08 04:09 | 34.95106 | -77.80749 | 35977 ft | 474 kts | 356° |
| 2026-05-08 04:10 | 35.01575 | -77.79221 | 35969 ft | 473 kts | 356° |
| 2026-05-08 04:10 | 35.08036 | -77.77733 | 35959 ft | 472 kts | 355° |
| 2026-05-08 04:11 | 35.14491 | -77.76280 | 36003 ft | 471 kts | 355° |
| 2026-05-08 04:11 | 35.20948 | -77.74834 | 35989 ft | 471 kts | 355° |
| 2026-05-08 04:12 | 35.27356 | -77.73394 | 35985 ft | 471 kts | 355° |
| 2026-05-08 04:12 | 35.33830 | -77.71935 | 35993 ft | 470 kts | 355° |
| 2026-05-08 04:13 | 35.40222 | -77.70493 | 35988 ft | 470 kts | 355° |
| 2026-05-08 04:13 | 35.46645 | -77.69041 | 35984 ft | 469 kts | 355° |
| 2026-05-08 04:14 | 35.53060 | -77.67588 | 35978 ft | 469 kts | 355° |
| 2026-05-08 04:14 | 35.59479 | -77.66133 | 35970 ft | 468 kts | 355° |
| 2026-05-08 04:15 | 35.65877 | -77.64833 | 35985 ft | 464 kts | 351° |
| 2026-05-08 04:15 | 35.72264 | -77.63756 | 35979 ft | 463 kts | 351° |
| 2026-05-08 04:16 | 35.78649 | -77.62675 | 35971 ft | 464 kts | 351° |
| 2026-05-08 04:16 | 35.85039 | -77.61556 | 35972 ft | 464 kts | 352° |
| 2026-05-08 04:17 | 35.91433 | -77.60421 | 35992 ft | 465 kts | 351° |
| 2026-05-08 04:17 | 35.97831 | -77.59286 | 35990 ft | 464 kts | 351° |
| 2026-05-08 04:18 | 36.04221 | -77.58144 | 35980 ft | 464 kts | 351° |
| 2026-05-08 04:18 | 36.10563 | -77.57011 | 36059 ft | 463 kts | 351° |
| 2026-05-08 04:19 | 36.16991 | -77.55854 | 35990 ft | 465 kts | 351° |
| 2026-05-08 04:19 | 36.23345 | -77.54708 | 35989 ft | 464 kts | 351° |
| 2026-05-08 04:20 | 36.29731 | -77.53559 | 35988 ft | 463 kts | 351° |
| 2026-05-08 04:20 | 36.36110 | -77.52411 | 36028 ft | 463 kts | 351° |
| 2026-05-08 04:21 | 36.42495 | -77.51261 | 35999 ft | 463 kts | 351° |
| 2026-05-08 04:21 | 36.48865 | -77.50110 | 35983 ft | 462 kts | 351° |
| 2026-05-08 04:22 | 36.55229 | -77.48959 | 35983 ft | 462 kts | 351° |
| 2026-05-08 04:22 | 36.61583 | -77.47817 | 36035 ft | 462 kts | 351° |
| 2026-05-08 04:23 | 36.67944 | -77.46676 | 36011 ft | 461 kts | 351° |
| 2026-05-08 04:23 | 36.74289 | -77.45533 | 36008 ft | 460 kts | 351° |
| 2026-05-08 04:24 | 36.79556 | -77.44584 | 36009 ft | 460 kts | 351° |
| 2026-05-08 04:24 | 36.85891 | -77.43446 | 36006 ft | 461 kts | 351° |
| 2026-05-08 04:25 | 36.92242 | -77.42304 | 35997 ft | 460 kts | 351° |
| 2026-05-08 04:25 | 36.98570 | -77.41158 | 35994 ft | 460 kts | 351° |
| 2026-05-08 04:26 | 37.04902 | -77.39999 | 36081 ft | 460 kts | 351° |
| 2026-05-08 04:26 | 37.11248 | -77.38844 | 35953 ft | 462 kts | 351° |
| 2026-05-08 04:27 | 37.14458 | -77.38269 | 35259 ft | 469 kts | 351° |
| 2026-05-08 04:27 | 37.17682 | -77.37681 | 34578 ft | 467 kts | 351° |
| 2026-05-08 04:27 | 37.20896 | -77.37092 | 33768 ft | 468 kts | 351° |
| 2026-05-08 04:27 | 37.24128 | -77.36501 | 32857 ft | 469 kts | 351° |
| 2026-05-08 04:28 | 37.27357 | -77.35911 | 31969 ft | 470 kts | 352° |
| 2026-05-08 04:28 | 37.30597 | -77.35319 | 31081 ft | 472 kts | 353° |
| 2026-05-08 04:28 | 37.33854 | -77.34725 | 30131 ft | 474 kts | 355° |
| 2026-05-08 04:28 | 37.37124 | -77.34126 | 28928 ft | 476 kts | 355° |
| 2026-05-08 04:29 | 37.40389 | -77.33521 | 28178 ft | 470 kts | 355° |
| 2026-05-08 04:29 | 37.43555 | -77.32930 | 27688 ft | 458 kts | 355° |
| 2026-05-08 04:29 | 37.46641 | -77.32348 | 27518 ft | 440 kts | 355° |
| 2026-05-08 04:29 | 37.49617 | -77.31795 | 27262 ft | 425 kts | 354° |
| 2026-05-08 04:30 | 37.52542 | -77.31180 | 26704 ft | 426 kts | 356° |
| 2026-05-08 04:30 | 37.55440 | -77.30475 | 26135 ft | 423 kts | 357° |
| 2026-05-08 04:30 | 37.58314 | -77.29753 | 25574 ft | 420 kts | 358° |
| 2026-05-08 04:30 | 37.61166 | -77.29042 | 25004 ft | 416 kts | 357° |
| 2026-05-08 04:31 | 37.64000 | -77.28351 | 24435 ft | 413 kts | 357° |
| 2026-05-08 04:31 | 37.66815 | -77.27674 | 23873 ft | 411 kts | 357° |
| 2026-05-08 04:31 | 37.69607 | -77.27005 | 23300 ft | 408 kts | 358° |
| 2026-05-08 04:31 | 37.72401 | -77.26330 | 23094 ft | 411 kts | 358° |
| 2026-05-08 04:32 | 37.75202 | -77.25616 | 23005 ft | 410 kts | 359° |
| 2026-05-08 04:32 | 37.77984 | -77.24886 | 22990 ft | 408 kts | 359° |
| 2026-05-08 04:32 | 37.80763 | -77.24157 | 22991 ft | 409 kts | 359° |
| 2026-05-08 04:32 | 37.83549 | -77.23430 | 22987 ft | 409 kts | 359° |
| 2026-05-08 04:33 | 37.86336 | -77.22705 | 22950 ft | 409 kts | 359° |
| 2026-05-08 04:33 | 37.89123 | -77.21978 | 22975 ft | 408 kts | 359° |
| 2026-05-08 04:33 | 37.91909 | -77.21258 | 22786 ft | 412 kts | 359° |
| 2026-05-08 04:33 | 37.94717 | -77.20531 | 22386 ft | 411 kts | 359° |
| 2026-05-08 04:34 | 37.97499 | -77.19803 | 22078 ft | 407 kts | 359° |
| 2026-05-08 04:34 | 38.00259 | -77.19081 | 21711 ft | 403 kts | 359° |
| 2026-05-08 04:34 | 38.02992 | -77.18367 | 21364 ft | 399 kts | 359° |
| 2026-05-08 04:34 | 38.05696 | -77.17662 | 21035 ft | 395 kts | 359° |
| 2026-05-08 04:35 | 38.08393 | -77.16960 | 20579 ft | 396 kts | 360° |
| 2026-05-08 04:35 | 38.11093 | -77.16258 | 20100 ft | 397 kts | 0° |
| 2026-05-08 04:35 | 38.13801 | -77.15552 | 19618 ft | 398 kts | 0° |
| 2026-05-08 04:35 | 38.16505 | -77.14843 | 19134 ft | 395 kts | 1° |
| 2026-05-08 04:36 | 38.19176 | -77.14139 | 18685 ft | 389 kts | 1° |
| 2026-05-08 04:36 | 38.21781 | -77.13454 | 18164 ft | 386 kts | 1° |
| 2026-05-08 04:36 | 38.24392 | -77.12769 | 17658 ft | 380 kts | 1° |
| 2026-05-08 04:36 | 38.26961 | -77.12094 | 17201 ft | 374 kts | 1° |
| 2026-05-08 04:37 | 38.29502 | -77.11428 | 16788 ft | 371 kts | 1° |
| 2026-05-08 04:37 | 38.32020 | -77.10768 | 16373 ft | 369 kts | 2° |
| 2026-05-08 04:37 | 38.34526 | -77.10110 | 15962 ft | 367 kts | 2° |
| 2026-05-08 04:37 | 38.37005 | -77.09276 | 15544 ft | 370 kts | 8° |
| 2026-05-08 04:38 | 38.39448 | -77.08335 | 15286 ft | 364 kts | 8° |
| 2026-05-08 04:38 | 38.41858 | -77.07366 | 15048 ft | 363 kts | 9° |
| 2026-05-08 04:38 | 38.44250 | -77.06138 | 14347 ft | 381 kts | 24° |
| 2026-05-08 04:38 | 38.46341 | -77.04041 | 13890 ft | 385 kts | 40° |
| 2026-05-08 04:39 | 38.48184 | -77.01601 | 13454 ft | 379 kts | 41° |
| 2026-05-08 04:39 | 38.50015 | -76.99216 | 12992 ft | 372 kts | 40° |
| 2026-05-08 04:39 | 38.51854 | -76.96936 | 12580 ft | 364 kts | 38° |
| 2026-05-08 04:39 | 38.53673 | -76.94744 | 12181 ft | 357 kts | 38° |
| 2026-05-08 04:40 | 38.55475 | -76.92593 | 11811 ft | 352 kts | 38° |
| 2026-05-08 04:40 | 38.57251 | -76.90475 | 11480 ft | 347 kts | 38° |
| 2026-05-08 04:40 | 38.59001 | -76.88384 | 11149 ft | 342 kts | 38° |
| 2026-05-08 04:40 | 38.60727 | -76.86321 | 10832 ft | 337 kts | 38° |
| 2026-05-08 04:41 | 38.62422 | -76.84292 | 10521 ft | 330 kts | 38° |
| 2026-05-08 04:41 | 38.64076 | -76.82308 | 10199 ft | 322 kts | 38° |
| 2026-05-08 04:41 | 38.65694 | -76.80369 | 9909 ft | 315 kts | 38° |
| 2026-05-08 04:41 | 38.67245 | -76.78504 | 9888 ft | 297 kts | 38° |
| 2026-05-08 04:42 | 38.68701 | -76.76751 | 9501 ft | 291 kts | 37° |
| 2026-05-08 04:42 | 38.70167 | -76.74987 | 9053 ft | 283 kts | 39° |
| 2026-05-08 04:42 | 38.71354 | -76.73003 | 8784 ft | 281 kts | 54° |
| 2026-05-08 04:42 | 38.72303 | -76.70802 | 8525 ft | 284 kts | 57° |
| 2026-05-08 04:43 | 38.73228 | -76.68552 | 8256 ft | 285 kts | 57° |
| 2026-05-08 04:43 | 38.74161 | -76.66328 | 7978 ft | 282 kts | 57° |
| 2026-05-08 04:43 | 38.75099 | -76.64137 | 7710 ft | 280 kts | 57° |
| 2026-05-08 04:43 | 38.76037 | -76.61968 | 7446 ft | 277 kts | 57° |
| 2026-05-08 04:44 | 38.76972 | -76.59818 | 7182 ft | 274 kts | 55° |
| 2026-05-08 04:44 | 38.78205 | -76.58049 | 6896 ft | 262 kts | 28° |
| 2026-05-08 04:44 | 38.79827 | -76.57154 | 6689 ft | 250 kts | 10° |
| 2026-05-08 04:44 | 38.81509 | -76.56681 | 6472 ft | 248 kts | 7° |
| 2026-05-08 04:45 | 38.83214 | -76.56255 | 6212 ft | 251 kts | 7° |
| 2026-05-08 04:45 | 38.84933 | -76.55825 | 6014 ft | 251 kts | 6° |
| 2026-05-08 04:45 | 38.86638 | -76.55469 | 5895 ft | 248 kts | 5° |
| 2026-05-08 04:45 | 38.88344 | -76.55134 | 5771 ft | 248 kts | 5° |
| 2026-05-08 04:46 | 38.90045 | -76.54799 | 5680 ft | 248 kts | 5° |
| 2026-05-08 04:46 | 38.91754 | -76.54457 | 5567 ft | 248 kts | 5° |
| 2026-05-08 04:46 | 38.93461 | -76.54111 | 5457 ft | 248 kts | 5° |
| 2026-05-08 04:46 | 38.95160 | -76.53764 | 5341 ft | 244 kts | 5° |
| 2026-05-08 04:47 | 38.96798 | -76.53426 | 5215 ft | 231 kts | 5° |
| 2026-05-08 04:47 | 38.98343 | -76.53106 | 5102 ft | 218 kts | 5° |
| 2026-05-08 04:47 | 38.99804 | -76.52804 | 4999 ft | 209 kts | 5° |
| 2026-05-08 04:47 | 39.01240 | -76.52521 | 4840 ft | 209 kts | 4° |
| 2026-05-08 04:48 | 39.02682 | -76.52242 | 4660 ft | 210 kts | 4° |
| 2026-05-08 04:48 | 39.04100 | -76.51967 | 4482 ft | 209 kts | 4° |
| 2026-05-08 04:48 | 39.05528 | -76.51688 | 4305 ft | 206 kts | 4° |
| 2026-05-08 04:48 | 39.06925 | -76.51414 | 4118 ft | 199 kts | 4° |
| 2026-05-08 04:49 | 39.08270 | -76.51162 | 3890 ft | 193 kts | 360° |
| 2026-05-08 04:49 | 39.09584 | -76.51107 | 3673 ft | 185 kts | 356° |
| 2026-05-08 04:49 | 39.10846 | -76.51093 | 3408 ft | 178 kts | 355° |
| 2026-05-08 04:49 | 39.12058 | -76.51077 | 3153 ft | 170 kts | 356° |
| 2026-05-08 04:50 | 39.13231 | -76.51058 | 2897 ft | 167 kts | 356° |
| 2026-05-08 04:50 | 39.14369 | -76.51036 | 2637 ft | 160 kts | 355° |
| 2026-05-08 04:50 | 39.15402 | -76.51283 | 2334 ft | 146 kts | 319° |
| 2026-05-08 04:50 | 39.15852 | -76.52312 | 2182 ft | 126 kts | 297° |
| 2026-05-08 04:51 | 39.16262 | -76.53228 | 2045 ft | 119 kts | 295° |
| 2026-05-08 04:51 | 39.16447 | -76.54261 | 1870 ft | 118 kts | 286° |
| 2026-05-08 04:51 | 39.16594 | -76.55270 | 1722 ft | 112 kts | 285° |
| 2026-05-08 04:51 | 39.16724 | -76.56275 | 1587 ft | 116 kts | 281° |
| 2026-05-08 04:52 | 39.16808 | -76.57320 | 1414 ft | 117 kts | 279° |
| 2026-05-08 04:52 | 39.16872 | -76.58365 | 1257 ft | 117 kts | 277° |
| 2026-05-08 04:52 | 39.16913 | -76.59418 | 1146 ft | 120 kts | 276° |
| 2026-05-08 04:52 | 39.16966 | -76.60514 | 991 ft | 124 kts | 276° |
| 2026-05-08 04:53 | 39.17031 | -76.61630 | 778 ft | 128 kts | 275° |
| 2026-05-08 04:53 | 39.17112 | -76.62796 | 554 ft | 132 kts | 274° |
| 2026-05-08 04:53 | 39.17183 | -76.63953 | 397 ft | 128 kts | 275° |
| 2026-05-08 04:53 | 39.17254 | -76.65111 | 241 ft | 130 kts | 273° |
| 2026-05-08 04:54 | 39.17314 | -76.66248 | 147 ft | 118 kts | 274° |
| 2026-05-08 04:54 | 39.17365 | -76.67073 | 149 ft | 70 kts | 274° |
| 2026-05-08 04:54 | 39.17388 | -76.67522 | 149 ft | 26 kts | 274° |
| 2026-05-08 04:54 | 39.17439 | -76.67671 | 148 ft | 16 kts | 324° |
| 2026-05-08 04:55 | 39.17457 | -76.67678 | 148 ft | 1 kts | 353° |
| 2026-05-08 04:55 | 39.17470 | -76.67679 | 147 ft | 3 kts | 357° |
| 2026-05-08 04:55 | 39.17503 | -76.67656 | 146 ft | 7 kts | 61° |
| 2026-05-08 04:55 | 39.17506 | -76.67579 | 146 ft | 10 kts | 93° |
| 2026-05-08 04:56 | 39.17503 | -76.67479 | 146 ft | 12 kts | 90° |
| 2026-05-08 04:56 | 39.17549 | -76.67373 | 145 ft | 15 kts | 53° |
| 2026-05-08 04:56 | 39.17610 | -76.67266 | 146 ft | 13 kts | 56° |
| 2026-05-08 04:56 | 39.17605 | -76.67165 | 150 ft | 12 kts | 136° |
| 2026-05-08 04:57 | 39.17538 | -76.67098 | 151 ft | 12 kts | 143° |
| 2026-05-08 04:57 | 39.17488 | -76.67015 | 152 ft | 12 kts | 117° |
| 2026-05-08 04:57 | 39.17467 | -76.66914 | 153 ft | 11 kts | 94° |
| 2026-05-08 04:57 | 39.17503 | -76.66832 | 154 ft | 11 kts | 33° |
| 2026-05-08 04:58 | 39.17567 | -76.66781 | 155 ft | 11 kts | 9° |
| 2026-05-08 04:58 | 39.17641 | -76.66774 | 155 ft | 10 kts | 359° |
| 2026-05-08 04:58 | 39.17680 | -76.66792 | 155 ft | 6 kts | 324° |
| 2026-05-08 04:58 | 39.17713 | -76.66825 | 155 ft | 6 kts | 322° |
| 2026-05-08 04:59 | 39.17745 | -76.66856 | 155 ft | 6 kts | 322° |
| 2026-05-08 04:59 | 39.17761 | -76.66892 | 155 ft | 3 kts | 266° |
| 2026-05-08 04:59 | 39.17753 | -76.66912 | 155 ft | 2 kts | 235° |
| 2026-05-08 04:59 | 39.17743 | -76.66929 | 155 ft | 2 kts | 233° |
| 2026-05-08 05:00 | 39.17734 | -76.66945 | 155 ft | 1 kts | 233° |
| 2026-05-08 05:00 | 39.17732 | -76.66948 | 155 ft | 0 kts | 234° |